Time;durP1;ratioP1;P1;durP2;ratioP2;P2;SDS_P1;SDS_P2;PMS_P1;PMS_P2;Temp;Humidity;BMP_temperature;BMP_pressure;BME280_temperature;BME280_humidity;BME280_pressure;Samples;Min_cycle;Max_cycle;Signal;HPM_P1;HPM_P2
2022/11/02 00:01:19;;;;;;;32.42;16.73;;;12.00;99.90;;;;;;6241276;23;20009;-85
2022/11/02 00:03:46;;;;;;;31.17;16.92;;;11.90;99.90;;;;;;6236793;23;20039;-85
2022/11/02 00:06:12;;;;;;;32.10;17.08;;;11.90;99.90;;;;;;6237035;23;20020;-85
2022/11/02 00:08:37;;;;;;;27.80;17.38;;;11.90;99.90;;;;;;6243189;22;20020;-79
2022/11/02 00:11:03;;;;;;;31.08;16.63;;;11.90;99.90;;;;;;6259153;22;19996;-80
2022/11/02 00:13:29;;;;;;;28.98;16.02;;;11.80;99.90;;;;;;6261241;23;20027;-80
2022/11/02 00:15:55;;;;;;;32.35;16.80;;;11.80;99.90;;;;;;6263517;22;20004;-79
2022/11/02 00:18:21;;;;;;;27.58;15.85;;;11.80;99.90;;;;;;6267215;22;19984;-79
2022/11/02 00:20:47;;;;;;;36.15;18.58;;;11.80;99.90;;;;;;6272647;22;20066;-79
2022/11/02 00:23:14;;;;;;;29.50;16.80;;;11.80;99.90;;;;;;6267096;23;20011;-80
2022/11/02 00:25:44;;;;;;;28.73;16.33;;;11.80;99.90;;;;;;6270506;22;20014;-78
2022/11/02 00:28:11;;;;;;;29.73;16.27;;;11.80;99.90;;;;;;6266649;22;20208;-80
2022/11/02 00:30:37;;;;;;;26.70;15.30;;;11.80;99.90;;;;;;6258343;23;20000;-79
2022/11/02 00:33:03;;;;;;;27.35;15.50;;;11.80;99.90;;;;;;6259770;23;20044;-79
2022/11/02 00:35:29;;;;;;;27.75;15.48;;;11.90;99.90;;;;;;6258768;23;20008;-79
2022/11/02 00:37:55;;;;;;;25.63;15.23;;;11.90;99.90;;;;;;6248858;23;20438;-80
2022/11/02 00:40:21;;;;;;;27.27;15.55;;;11.90;99.90;;;;;;6249432;23;20006;-80
2022/11/02 00:42:47;;;;;;;28.67;15.48;;;12.00;99.90;;;;;;6251110;23;20010;-81
2022/11/02 00:45:12;;;;;;;28.08;16.10;;;12.00;99.90;;;;;;6259714;23;20004;-79
2022/11/02 00:47:39;;;;;;;25.85;15.77;;;12.00;99.90;;;;;;6263470;23;20012;-79
2022/11/02 00:50:05;;;;;;;25.98;15.73;;;12.00;99.90;;;;;;6263912;22;20022;-77
2022/11/02 00:52:32;;;;;;;29.73;16.77;;;12.00;99.90;;;;;;6263599;22;20004;-80
2022/11/02 00:54:59;;;;;;;31.80;17.33;;;12.00;99.90;;;;;;6252145;22;20031;-79
2022/11/02 00:57:24;;;;;;;29.73;17.25;;;12.00;99.90;;;;;;6255109;23;20008;-78
2022/11/02 00:59:52;;;;;;;28.13;16.05;;;12.00;99.90;;;;;;6249481;23;20000;-80
2022/11/02 01:02:18;;;;;;;27.98;15.40;;;12.00;99.90;;;;;;6253484;22;20084;-78
2022/11/02 01:04:44;;;;;;;31.17;16.65;;;12.00;99.90;;;;;;6254417;22;20107;-80
2022/11/02 01:07:10;;;;;;;40.35;18.15;;;11.90;99.90;;;;;;6254458;22;20023;-81
2022/11/02 01:09:36;;;;;;;32.08;17.58;;;11.90;99.90;;;;;;6253672;22;20458;-80
2022/11/02 01:12:02;;;;;;;33.47;18.98;;;11.90;99.90;;;;;;6226471;23;20054;-80
2022/11/02 01:14:28;;;;;;;34.10;18.58;;;11.80;99.90;;;;;;6251019;23;20074;-81
2022/11/02 01:16:56;;;;;;;35.35;19.20;;;11.80;99.90;;;;;;6260136;23;20012;-79
2022/11/02 01:19:23;;;;;;;31.55;18.63;;;11.70;99.90;;;;;;6262478;22;20003;-78
2022/11/02 01:21:49;;;;;;;37.80;19.50;;;11.60;99.90;;;;;;6262981;22;20015;-78
2022/11/02 01:24:14;;;;;;;32.25;19.23;;;11.60;99.90;;;;;;6264292;22;19996;-78
2022/11/02 01:26:40;;;;;;;33.72;18.77;;;11.60;99.90;;;;;;6237471;23;20012;-78
2022/11/02 01:29:06;;;;;;;32.90;19.60;;;11.60;99.90;;;;;;6252790;23;20414;-80
2022/11/02 01:31:32;;;;;;;35.03;18.60;;;11.60;99.90;;;;;;6251433;23;20385;-79
2022/11/02 01:33:57;;;;;;;39.58;19.52;;;11.60;99.90;;;;;;6251101;22;20008;-80
2022/11/02 01:36:23;;;;;;;38.63;19.02;;;11.50;99.90;;;;;;6250827;23;20015;-79
2022/11/02 01:38:50;;;;;;;29.20;18.10;;;11.60;99.90;;;;;;6247921;23;20004;-79
2022/11/02 01:41:16;;;;;;;29.27;18.25;;;11.60;99.90;;;;;;6226288;23;20008;-78
2022/11/02 01:43:44;;;;;;;32.78;18.92;;;11.60;99.90;;;;;;6251779;22;20426;-77
2022/11/02 01:46:10;;;;;;;33.05;18.38;;;11.60;99.90;;;;;;6221468;23;20012;-79
2022/11/02 01:48:39;;;;;;;33.05;18.27;;;11.70;99.90;;;;;;6247580;23;20019;-80
2022/11/02 01:51:25;;;;;;;27.55;17.75;;;11.70;99.90;;;;;;6250544;22;20008;-78
2022/11/02 01:53:53;;;;;;;28.00;17.88;;;11.70;99.90;;;;;;6251554;22;20036;-79
2022/11/02 01:56:22;;;;;;;26.33;16.27;;;11.70;99.90;;;;;;6249300;22;20000;-78
2022/11/02 01:58:55;;;;;;;34.53;19.10;;;11.70;99.90;;;;;;6247983;23;20000;-79
2022/11/02 02:01:22;;;;;;;37.22;18.20;;;11.70;99.90;;;;;;6263487;23;20000;-80
2022/11/02 02:03:50;;;;;;;31.30;17.92;;;11.70;99.90;;;;;;6263990;23;20060;-79
2022/11/02 02:06:17;;;;;;;30.77;18.08;;;11.70;99.90;;;;;;6261740;23;20008;-79
2022/11/02 02:08:49;;;;;;;33.22;18.52;;;11.60;99.90;;;;;;6258480;23;20023;-78
2022/11/02 02:11:29;;;;;;;31.60;18.05;;;11.60;99.90;;;;;;6260821;23;20008;-78
2022/11/02 02:14:05;;;;;;;34.95;18.77;;;11.60;99.90;;;;;;6262065;23;20004;-78
2022/11/02 02:16:42;;;;;;;38.33;19.02;;;11.60;99.90;;;;;;6259481;23;20008;-79
2022/11/02 02:19:42;;;;;;;32.10;18.02;;;11.60;99.90;;;;;;6255530;22;20015;-77
2022/11/02 02:22:38;;;;;;;35.35;19.08;;;11.60;99.90;;;;;;6261141;22;20012;-79
2022/11/02 02:25:25;;;;;;;34.47;18.23;;;11.60;99.90;;;;;;6261096;22;20011;-79
2022/11/02 02:28:09;;;;;;;37.35;19.27;;;11.60;99.90;;;;;;6248691;23;20114;-79
2022/11/02 02:30:43;;;;;;;33.25;18.73;;;11.60;99.90;;;;;;6223083;23;20008;-80
2022/11/02 02:33:22;;;;;;;36.20;19.10;;;11.50;99.90;;;;;;6250726;23;20023;-79
2022/11/02 02:36:03;;;;;;;28.40;18.35;;;11.50;99.90;;;;;;6256907;23;20015;-78
2022/11/02 02:38:48;;;;;;;32.28;19.52;;;11.50;99.90;;;;;;6250214;23;20381;-79
2022/11/02 02:41:31;;;;;;;29.70;18.65;;;11.50;99.90;;;;;;6251065;23;20032;-79
2022/11/02 02:43:59;;;;;;;29.98;18.70;;;11.50;99.90;;;;;;6251187;23;20062;-80
2022/11/02 02:46:35;;;;;;;34.35;19.33;;;11.50;99.90;;;;;;6226574;23;20004;-80
2022/11/02 02:49:03;;;;;;;39.75;18.80;;;11.50;99.90;;;;;;6202056;23;20485;-78
2022/11/02 02:51:32;;;;;;;39.13;19.98;;;11.50;99.90;;;;;;6259139;23;20004;-78
2022/11/02 02:54:03;;;;;;;37.42;21.15;;;11.50;99.90;;;;;;6264845;22;20011;-78
2022/11/02 02:56:35;;;;;;;33.65;20.15;;;11.50;99.90;;;;;;6258335;23;20008;-79
2022/11/02 02:59:07;;;;;;;37.33;19.35;;;11.50;99.90;;;;;;6249712;23;20008;-80
2022/11/02 03:01:34;;;;;;;32.42;18.45;;;11.40;99.90;;;;;;6250359;23;20023;-79
2022/11/02 03:04:00;;;;;;;36.53;19.33;;;11.50;99.90;;;;;;6256996;22;20497;-79
2022/11/02 03:06:30;;;;;;;34.38;19.10;;;11.50;99.90;;;;;;6256990;23;20081;-79
2022/11/02 03:09:19;;;;;;;36.05;20.05;;;11.50;99.90;;;;;;6251248;23;20023;-79
2022/11/02 03:12:13;;;;;;;34.20;18.33;;;11.50;99.90;;;;;;6251371;23;20008;-80
2022/11/02 03:14:59;;;;;;;32.90;19.35;;;11.50;99.90;;;;;;6256914;22;20004;-79
2022/11/02 03:17:59;;;;;;;32.63;18.33;;;11.50;99.90;;;;;;6262181;23;20023;-78
2022/11/02 03:20:39;;;;;;;32.88;18.48;;;11.50;99.90;;;;;;6193206;23;20382;-80
2022/11/02 03:23:21;;;;;;;32.45;18.27;;;11.60;99.90;;;;;;6252088;23;20054;-80
2022/11/02 03:26:02;;;;;;;28.95;17.98;;;11.60;99.90;;;;;;6225383;23;20011;-80
2022/11/02 03:28:58;;;;;;;30.08;17.48;;;11.70;99.90;;;;;;6225581;23;20012;-79
2022/11/02 03:31:39;;;;;;;;;;;11.70;99.90;;;;;;6251000;23;20016;-79
2022/11/02 03:34:25;;;;;;;27.67;17.33;;;11.70;99.90;;;;;;6253411;22;19903;-79
2022/11/02 03:37:15;;;;;;;32.17;17.58;;;11.70;99.90;;;;;;6270124;23;19992;-78
2022/11/02 03:39:57;;;;;;;29.60;17.70;;;11.70;99.90;;;;;;6269067;22;20012;-79
2022/11/02 03:42:26;;;;;;;28.48;17.00;;;11.80;99.90;;;;;;6242900;23;20076;-79
2022/11/02 03:45:00;;;;;;;32.45;17.80;;;11.70;99.90;;;;;;6273460;22;20035;-79
2022/11/02 03:47:32;;;;;;;32.50;17.98;;;11.80;99.90;;;;;;6246906;23;20051;-78
2022/11/02 03:50:04;;;;;;;35.60;17.83;;;11.80;99.90;;;;;;6270636;23;20011;-77
2022/11/02 03:52:33;;;;;;;28.48;17.17;;;11.90;99.90;;;;;;6272371;22;20012;-76
2022/11/02 03:55:08;;;;;;;33.13;18.27;;;11.80;99.90;;;;;;6270274;23;19996;-77
2022/11/02 03:57:45;;;;;;;32.45;17.95;;;11.80;99.90;;;;;;6261910;23;20012;-79
2022/11/02 04:00:17;;;;;;;38.78;18.10;;;11.80;99.90;;;;;;6232299;23;19996;-76
2022/11/02 04:02:53;;;;;;;30.35;18.02;;;11.80;99.90;;;;;;6263036;23;20445;-77
2022/11/02 04:05:30;;;;;;;30.90;17.17;;;11.70;99.90;;;;;;6263458;23;20033;-77
2022/11/02 04:16:13;;;;;;;34.40;17.40;;;11.70;99.90;;;;;;6271412;22;20075;-78
2022/11/02 04:21:27;;;;;;;31.00;17.83;;;11.70;99.90;;;;;;6257702;23;20335;-80
2022/11/02 04:26:38;;;;;;;39.55;17.60;;;11.70;99.90;;;;;;6257198;23;20008;-81
2022/11/02 04:29:04;;;;;;;34.45;18.33;;;11.70;99.90;;;;;;6254063;23;20015;-79
2022/11/02 04:31:30;;;;;;;36.85;18.77;;;11.70;99.90;;;;;;6253342;23;20023;-79
2022/11/02 04:33:59;;;;;;;33.95;18.88;;;11.70;99.90;;;;;;6229110;23;20004;-79
2022/11/02 04:36:29;;;;;;;36.25;18.77;;;11.70;99.90;;;;;;6254731;23;20020;-79
2022/11/02 04:38:56;;;;;;;30.73;18.05;;;11.70;99.90;;;;;;6256629;22;20000;-81
2022/11/02 04:41:42;;;;;;;34.63;18.50;;;11.70;99.90;;;;;;6261923;22;20077;-78
2022/11/02 04:44:43;;;;;;;32.70;18.98;;;11.80;99.90;;;;;;6242080;23;20019;-79
2022/11/02 04:47:16;;;;;;;28.02;16.98;;;11.80;99.90;;;;;;6259970;23;20385;-79
2022/11/02 04:49:43;;;;;;;30.00;17.50;;;11.90;99.90;;;;;;6235592;23;20032;-78
2022/11/02 04:52:13;;;;;;;32.75;17.90;;;11.90;99.90;;;;;;6238851;23;20000;-78
2022/11/02 04:54:44;;;;;;;35.13;17.45;;;12.00;99.90;;;;;;6262501;23;20035;-78
2022/11/02 04:57:10;;;;;;;28.92;17.35;;;12.00;99.90;;;;;;6258038;23;20008;-78
2022/11/02 04:59:36;;;;;;;29.83;17.77;;;12.00;99.90;;;;;;6259579;22;20003;-79
2022/11/02 05:02:02;;;;;;;32.50;18.02;;;11.90;99.90;;;;;;6260880;23;20011;-80
2022/11/02 05:04:28;;;;;;;32.35;17.67;;;11.90;99.90;;;;;;6258640;23;20053;-79
2022/11/02 05:06:54;;;;;;;30.85;17.85;;;11.90;99.90;;;;;;6257755;22;20008;-78
2022/11/02 05:09:22;;;;;;;32.20;19.42;;;11.80;99.90;;;;;;6263853;23;20011;-79
2022/11/02 05:11:48;;;;;;;36.45;19.13;;;11.80;99.90;;;;;;6263135;23;20026;-80
2022/11/02 05:14:15;;;;;;;31.73;18.42;;;11.70;99.90;;;;;;6263345;23;20004;-78
2022/11/02 05:16:41;;;;;;;32.90;18.60;;;11.70;99.90;;;;;;6261683;23;20066;-79
2022/11/02 05:19:08;;;;;;;30.20;18.30;;;11.70;99.90;;;;;;6256630;23;20399;-80
2022/11/02 05:21:34;;;;;;;31.45;17.80;;;11.70;99.90;;;;;;6224232;23;20461;-80
2022/11/02 05:24:02;;;;;;;34.22;19.02;;;11.70;99.90;;;;;;6249387;23;20366;-78
2022/11/02 05:26:28;;;;;;;32.30;17.55;;;11.70;99.90;;;;;;6250072;23;20065;-79
2022/11/02 05:28:54;;;;;;;39.83;18.67;;;11.80;99.90;;;;;;6249602;23;20011;-80
2022/11/02 05:31:26;;;;;;;34.55;19.10;;;11.70;99.90;;;;;;6249656;23;20023;-79
2022/11/02 05:33:52;;;;;;;29.95;17.52;;;11.70;99.90;;;;;;6248370;23;20460;-80
2022/11/02 05:36:20;;;;;;;35.58;19.05;;;11.70;99.90;;;;;;6223338;23;20456;-78
2022/11/02 05:38:54;;;;;;;32.97;18.70;;;11.70;99.90;;;;;;6252246;22;20099;-82
2022/11/02 05:41:21;;;;;;;30.02;17.60;;;11.70;99.90;;;;;;6250724;23;20008;-82
2022/11/02 05:43:47;;;;;;;34.45;19.33;;;11.70;99.90;;;;;;6250305;23;20000;-81
2022/11/02 05:46:15;;;;;;;33.38;18.55;;;11.80;99.90;;;;;;6251718;23;20019;-81
2022/11/02 05:48:40;;;;;;;29.85;18.15;;;11.80;99.90;;;;;;6258829;22;20024;-81
2022/11/02 05:51:08;;;;;;;35.00;19.52;;;11.80;99.90;;;;;;6261300;23;20012;-80
2022/11/02 05:53:37;;;;;;;35.75;18.50;;;11.70;99.90;;;;;;6259284;22;20011;-80
2022/11/02 05:56:05;;;;;;;28.17;17.88;;;11.80;99.90;;;;;;6255671;23;20008;-82
2022/11/02 05:58:31;;;;;;;31.48;19.45;;;11.80;99.90;;;;;;6261660;22;20011;-81
2022/11/02 06:01:02;;;;;;;32.70;18.90;;;11.80;99.90;;;;;;6258852;23;20035;-81
2022/11/02 06:03:29;;;;;;;34.10;18.45;;;11.80;99.90;;;;;;6263325;22;20102;-82
2022/11/02 06:05:56;;;;;;;32.95;18.58;;;11.80;99.90;;;;;;6264808;22;20050;-81
2022/11/02 06:08:22;;;;;;;33.10;17.98;;;11.80;99.90;;;;;;6254514;22;19997;-86
2022/11/02 06:10:48;;;;;;;29.42;17.00;;;11.70;99.90;;;;;;6271646;22;20055;-86
2022/11/02 06:13:14;;;;;;;30.33;18.77;;;11.70;99.90;;;;;;6269456;23;20004;-85
2022/11/02 06:15:40;;;;;;;35.95;18.67;;;11.70;99.90;;;;;;6268406;23;20010;-84
2022/11/02 06:18:06;;;;;;;35.65;19.73;;;11.70;99.90;;;;;;6268061;23;20024;-86
2022/11/02 06:20:32;;;;;;;35.88;19.70;;;11.70;99.90;;;;;;6270057;22;19984;-87
2022/11/02 06:22:58;;;;;;;33.45;20.23;;;11.70;99.90;;;;;;6270961;23;20004;-87
2022/11/02 06:25:25;;;;;;;38.72;20.95;;;11.80;99.90;;;;;;6244173;23;20000;-86
2022/11/02 06:27:53;;;;;;;37.83;20.23;;;11.90;99.90;;;;;;6264509;22;20056;-85
2022/11/02 06:30:25;;;;;;;34.83;18.95;;;11.90;99.90;;;;;;6240708;23;20000;-86
2022/11/02 06:32:52;;;;;;;32.28;19.70;;;11.90;99.90;;;;;;6265826;23;20060;-86
2022/11/02 06:35:20;;;;;;;33.13;18.85;;;12.10;99.90;;;;;;6263513;23;20000;-83
2022/11/02 06:37:46;;;;;;;31.80;18.40;;;12.20;99.90;;;;;;6265650;23;20000;-84
2022/11/02 06:40:13;;;;;;;37.38;18.92;;;12.20;99.90;;;;;;6265551;22;19996;-86
2022/11/02 06:42:39;;;;;;;36.65;18.95;;;12.30;99.90;;;;;;6263752;23;20004;-87
2022/11/02 06:45:06;;;;;;;34.30;18.92;;;12.40;99.90;;;;;;6266251;22;20072;-88
2022/11/02 06:47:33;;;;;;;33.17;18.92;;;12.50;99.90;;;;;;6264479;22;20072;-86
2022/11/02 06:49:59;;;;;;;32.05;17.85;;;12.80;99.90;;;;;;6267041;22;20000;-87
2022/11/02 06:52:26;;;;;;;31.15;17.58;;;13.00;99.90;;;;;;6273737;22;19997;-85
2022/11/02 06:54:52;;;;;;;29.23;17.10;;;13.20;99.90;;;;;;6273308;22;19998;-85
2022/11/02 06:57:19;;;;;;;28.65;17.40;;;13.20;99.90;;;;;;6273461;22;20020;-86
2022/11/02 06:59:44;;;;;;;33.00;17.17;;;13.30;99.90;;;;;;6273551;22;19992;-83
2022/11/02 07:02:11;;;;;;;33.00;18.65;;;13.20;99.90;;;;;;6274424;22;20048;-86
2022/11/02 07:04:37;;;;;;;33.35;17.77;;;13.20;99.90;;;;;;6274054;22;20015;-86
2022/11/02 07:07:02;;;;;;;31.88;17.20;;;13.10;99.90;;;;;;6274101;22;20012;-86
2022/11/02 07:09:28;;;;;;;29.10;17.02;;;13.10;99.90;;;;;;6272085;22;20050;-87
2022/11/02 07:11:54;;;;;;;33.67;18.48;;;13.10;99.90;;;;;;6271714;22;19992;-85
2022/11/02 07:14:20;;;;;;;35.20;18.42;;;13.00;99.90;;;;;;6246057;23;19996;-88
2022/11/02 07:16:46;;;;;;;41.30;19.17;;;13.00;99.90;;;;;;6271582;23;20053;-83
2022/11/02 07:19:12;;;;;;;32.38;18.73;;;13.00;99.90;;;;;;6271649;22;20000;-85
2022/11/02 07:21:37;;;;;;;33.30;18.42;;;13.10;99.90;;;;;;6272846;23;20058;-85
2022/11/02 07:24:04;;;;;;;32.58;18.05;;;13.10;99.90;;;;;;6271295;22;20003;-87
2022/11/02 07:26:31;;;;;;;30.90;18.05;;;13.20;99.90;;;;;;6272216;22;20000;-86
2022/11/02 07:28:57;;;;;;;30.85;18.05;;;13.30;99.90;;;;;;6271023;22;19988;-84
2022/11/02 07:31:23;;;;;;;32.25;17.50;;;13.50;99.90;;;;;;6272065;22;20019;-85
2022/11/02 07:33:49;;;;;;;33.60;18.30;;;13.70;99.90;;;;;;6271759;22;20002;-84
2022/11/02 07:36:15;;;;;;;30.58;16.98;;;13.90;99.90;;;;;;6271643;22;20004;-84
2022/11/02 07:38:41;;;;;;;31.17;17.55;;;14.20;99.90;;;;;;6270702;22;20012;-87
2022/11/02 07:41:07;;;;;;;35.97;16.35;;;14.40;99.90;;;;;;6268846;22;20091;-86
2022/11/02 07:43:32;;;;;;;29.20;17.30;;;14.60;99.90;;;;;;6238868;23;20422;-88
2022/11/02 07:46:04;;;;;;;34.00;17.52;;;14.70;99.90;;;;;;6239856;23;20069;-88
2022/11/02 07:48:31;;;;;;;31.35;16.83;;;14.80;99.90;;;;;;6263525;22;20015;-89
2022/11/02 07:50:58;;;;;;;34.72;19.27;;;14.80;99.90;;;;;;6264062;23;20053;-87
2022/11/02 07:53:24;;;;;;;34.33;18.27;;;14.80;99.90;;;;;;6265388;23;20012;-86
2022/11/02 07:55:50;;;;;;;33.67;16.73;;;14.70;99.90;;;;;;6264747;23;20018;-89
2022/11/02 07:58:16;;;;;;;32.33;17.40;;;14.80;99.90;;;;;;6244667;22;20052;-86
2022/11/02 08:00:42;;;;;;;33.67;17.85;;;14.90;99.90;;;;;;6273814;22;19988;-87
2022/11/02 08:03:10;;;;;;;34.38;18.17;;;15.10;99.90;;;;;;6273928;22;20008;-86
2022/11/02 08:05:38;;;;;;;33.95;18.95;;;15.20;99.90;;;;;;6272535;22;19988;-86
2022/11/02 08:08:07;;;;;;;31.77;18.27;;;15.40;99.90;;;;;;6272868;22;20047;-84
2022/11/02 08:10:34;;;;;;;30.83;17.58;;;15.80;99.90;;;;;;6247281;23;20011;-86
2022/11/02 08:13:00;;;;;;;35.33;18.08;;;16.00;99.90;;;;;;6272737;22;20000;-85
2022/11/02 08:15:26;;;;;;;25.60;15.93;;;16.40;99.90;;;;;;6272713;22;19999;-84
2022/11/02 08:18:03;;;;;;;30.50;16.40;;;16.80;99.90;;;;;;6273186;22;20035;-86
2022/11/02 08:20:30;;;;;;;26.85;16.40;;;17.10;99.90;;;;;;6273583;22;20025;-84
2022/11/02 08:22:56;;;;;;;28.60;14.65;;;17.60;99.90;;;;;;6272921;22;20040;-85
2022/11/02 08:25:22;;;;;;;22.05;14.10;;;18.10;99.90;;;;;;6273556;22;20011;-85
2022/11/02 08:27:48;;;;;;;28.92;14.50;;;18.70;99.90;;;;;;6272579;22;20000;-85
2022/11/02 08:30:14;;;;;;;25.42;13.05;;;19.40;99.90;;;;;;6272520;22;20007;-86
2022/11/02 08:32:40;;;;;;;23.95;11.73;;;20.50;99.90;;;;;;6273381;22;19995;-84
2022/11/02 08:35:06;;;;;;;19.80;12.30;;;21.70;99.90;;;;;;6272570;22;20000;-85
2022/11/02 08:37:32;;;;;;;22.20;13.73;;;23.10;99.90;;;;;;6247335;22;20015;-84
2022/11/02 08:39:58;;;;;;;21.27;13.00;;;23.60;99.90;;;;;;6272219;22;20035;-85
2022/11/02 08:42:26;;;;;;;22.63;13.38;;;24.10;99.90;;;;;;6272901;22;19996;-84
2022/11/02 08:44:52;;;;;;;21.58;13.00;;;24.60;99.90;;;;;;6272197;22;20018;-86
2022/11/02 08:47:18;;;;;;;21.67;12.88;;;25.00;99.90;;;;;;6271935;22;20008;-86
2022/11/02 08:49:45;;;;;;;18.15;12.40;;;25.40;99.90;;;;;;6271831;22;20027;-86
2022/11/02 08:52:11;;;;;;;21.98;12.38;;;25.80;99.70;;;;;;6273110;22;20055;-87
2022/11/02 08:54:37;;;;;;;21.30;12.25;;;26.60;98.70;;;;;;6272498;22;20008;-88
2022/11/02 08:57:03;;;;;;;16.00;10.52;;;27.20;97.20;;;;;;6272137;22;20014;-89
2022/11/02 08:59:29;;;;;;;20.55;11.93;;;27.80;96.20;;;;;;6271999;22;20022;-86
2022/11/02 09:01:54;;;;;;;24.25;13.18;;;28.30;95.00;;;;;;6272367;22;20035;-86
2022/11/02 09:04:20;;;;;;;23.70;12.05;;;28.50;94.00;;;;;;6272009;22;20000;-86
2022/11/02 09:06:46;;;;;;;20.63;11.52;;;29.20;93.40;;;;;;6246587;22;20039;-87
2022/11/02 09:09:12;;;;;;;23.70;12.25;;;29.40;92.40;;;;;;6243334;23;20095;-88
2022/11/02 09:11:38;;;;;;;20.10;12.20;;;30.20;90.90;;;;;;6265843;23;20022;-89
2022/11/02 09:14:04;;;;;;;21.92;12.35;;;30.40;90.40;;;;;;6268668;22;20004;-88
2022/11/02 09:16:29;;;;;;;28.05;12.75;;;30.60;89.20;;;;;;6265951;23;20008;-88
2022/11/02 09:18:55;;;;;;;17.95;10.30;;;30.50;88.80;;;;;;6238385;23;20044;-87
2022/11/02 09:21:21;;;;;;;10.65;4.80;;;30.20;87.40;;;;;;6266677;23;20014;-88
2022/11/02 09:23:48;;;;;;;10.20;3.40;;;28.20;87.90;;;;;;6270282;23;19999;-87
2022/11/02 09:26:14;;;;;;;9.30;3.28;;;27.40;89.50;;;;;;6271663;22;20030;-85
2022/11/02 09:28:40;;;;;;;6.18;2.95;;;27.70;89.30;;;;;;6268620;23;19996;-89
2022/11/02 09:31:06;;;;;;;9.18;3.15;;;28.10;88.90;;;;;;6267625;23;20012;-87
2022/11/02 09:33:33;;;;;;;11.65;3.30;;;28.60;87.50;;;;;;6269837;22;20080;-87
2022/11/02 09:36:02;;;;;;;6.78;3.20;;;28.40;87.10;;;;;;6270191;22;19996;-88
2022/11/02 09:38:28;;;;;;;9.80;3.10;;;28.30;86.80;;;;;;6270410;22;20008;-87
2022/11/02 09:40:57;;;;;;;13.60;3.00;;;27.90;87.30;;;;;;6270199;22;19993;-88
2022/11/02 09:43:42;;;;;;;8.27;2.70;;;27.60;87.80;;;;;;6269965;23;20009;-86
2022/11/02 09:46:20;;;;;;;8.43;3.20;;;27.90;87.30;;;;;;6270747;22;20016;-86
2022/11/02 09:49:24;;;;;;;12.23;3.38;;;28.00;86.90;;;;;;6243037;23;20407;-87
2022/11/02 09:51:54;;;;;;;8.02;3.25;;;28.20;86.70;;;;;;6152137;23;20017;-87
2022/11/02 09:54:23;;;;;;;12.25;2.90;;;29.00;85.30;;;;;;6249780;22;20079;-88
2022/11/02 09:56:51;;;;;;;10.23;2.90;;;29.10;84.20;;;;;;6266322;23;20125;-88
2022/11/02 09:59:23;;;;;;;7.18;3.00;;;28.80;85.50;;;;;;6265790;23;19989;-87
2022/11/02 10:02:01;;;;;;;5.90;2.42;;;27.50;85.80;;;;;;6265083;23;19999;-89
2022/11/02 10:04:42;;;;;;;10.82;3.50;;;26.40;88.10;;;;;;6265042;23;19992;-88
2022/11/02 10:07:36;;;;;;;8.57;2.55;;;25.60;90.60;;;;;;6238754;23;20019;-87
2022/11/02 10:10:14;;;;;;;7.45;2.15;;;25.50;90.30;;;;;;6265057;23;20636;-88
2022/11/02 10:13:09;;;;;;;7.40;2.60;;;26.10;90.30;;;;;;6269877;23;20031;-87
2022/11/02 10:15:46;;;;;;;;;;;27.40;87.50;;;;;;6271351;22;20031;-86
2022/11/02 10:18:19;;;;;;;7.93;2.33;;;27.40;86.00;;;;;;6270736;22;19896;-87
2022/11/02 10:20:52;;;;;;;15.27;2.53;;;27.60;85.40;;;;;;6271909;22;20042;-87
2022/11/02 10:23:33;;;;;;;7.75;2.15;;;27.80;84.90;;;;;;6271969;22;20007;-85
2022/11/02 10:26:01;;;;;;;4.97;2.05;;;28.00;83.40;;;;;;6272587;22;20100;-86
2022/11/02 10:28:33;;;;;;;8.80;2.20;;;28.40;83.10;;;;;;6245297;23;20047;-84
2022/11/02 10:31:01;;;;;;;9.70;2.55;;;28.90;81.60;;;;;;6271862;22;20000;-86
2022/11/02 10:33:29;;;;;;;4.53;2.13;;;28.90;80.60;;;;;;6273109;22;19992;-87
2022/11/02 10:36:22;;;;;;;7.57;2.50;;;28.50;80.50;;;;;;6273325;22;19992;-85
2022/11/02 10:39:08;;;;;;;8.10;2.38;;;28.90;80.20;;;;;;6256908;22;20003;-87
2022/11/02 10:41:40;;;;;;;8.50;2.28;;;28.60;79.80;;;;;;6272312;22;19999;-85
2022/11/02 10:44:15;;;;;;;9.18;2.13;;;28.00;80.50;;;;;;6272167;22;20004;-86
2022/11/02 10:46:52;;;;;;;7.75;2.05;;;27.80;80.90;;;;;;6272147;22;20020;-86
2022/11/02 10:49:40;;;;;;;9.45;2.67;;;27.30;81.40;;;;;;6273113;22;20000;-88
2022/11/02 10:52:09;;;;;;;8.27;2.30;;;27.50;81.30;;;;;;6272583;23;20009;-87
2022/11/02 10:54:34;;;;;;;10.60;2.53;;;27.80;80.90;;;;;;6271853;22;20685;-88
2022/11/02 10:57:14;;;;;;;8.40;2.33;;;28.10;80.60;;;;;;6266519;23;20000;-87
2022/11/02 10:59:40;;;;;;;8.07;2.55;;;28.40;79.30;;;;;;6262415;22;20330;-87
2022/11/02 11:02:14;;;;;;;6.00;2.85;;;28.10;79.20;;;;;;6263104;23;20000;-87
2022/11/02 11:04:41;;;;;;;8.70;2.33;;;27.90;79.90;;;;;;6264353;22;20000;-89
2022/11/02 11:07:15;;;;;;;5.68;2.45;;;28.40;79.20;;;;;;6262577;23;20023;-88
2022/11/02 11:09:44;;;;;;;6.78;2.33;;;28.30;79.10;;;;;;6261528;23;20067;-88
2022/11/02 11:12:21;;;;;;;17.83;2.50;;;28.30;78.50;;;;;;6262395;23;20073;-87
2022/11/02 11:14:55;;;;;;;9.75;2.53;;;28.30;77.90;;;;;;6238069;23;20008;-89
2022/11/02 11:17:32;;;;;;;8.20;2.30;;;28.40;78.30;;;;;;6264683;23;20008;-88
2022/11/02 11:19:59;;;;;;;8.15;2.47;;;28.20;78.50;;;;;;6263722;23;20024;-89
2022/11/02 11:22:40;;;;;;;9.85;3.30;;;28.60;77.40;;;;;;6263592;23;20403;-89
2022/11/02 11:25:23;;;;;;;4.82;2.42;;;28.60;77.00;;;;;;6262982;23;20027;-88
2022/11/02 11:27:53;;;;;;;6.55;2.28;;;28.70;76.50;;;;;;6261938;23;20039;-89
2022/11/02 11:30:28;;;;;;;8.70;2.72;;;28.50;75.90;;;;;;6262981;22;20011;-88
2022/11/02 11:32:56;;;;;;;5.25;2.60;;;28.50;76.50;;;;;;6260646;23;20004;-86
2022/11/02 11:35:32;;;;;;;9.60;2.83;;;28.80;75.30;;;;;;6261684;23;20400;-88
2022/11/02 11:38:26;;;;;;;7.15;2.90;;;28.60;75.80;;;;;;6266536;23;20008;-86
2022/11/02 11:40:56;;;;;;;6.95;2.60;;;29.00;75.70;;;;;;6264616;22;19992;-86
2022/11/02 11:43:27;;;;;;;11.93;2.75;;;29.80;75.40;;;;;;6268971;23;20039;-89
2022/11/02 11:46:00;;;;;;;10.98;3.28;;;30.00;74.70;;;;;;6269174;23;20030;-87
2022/11/02 11:48:38;;;;;;;5.63;2.78;;;29.80;75.10;;;;;;6242333;23;20088;-88
2022/11/02 11:51:28;;;;;;;7.82;2.72;;;29.90;74.20;;;;;;6265792;23;20010;-88
2022/11/02 11:54:28;;;;;;;6.93;2.95;;;29.50;75.10;;;;;;6264044;22;20012;-87
2022/11/02 11:56:58;;;;;;;9.77;3.05;;;29.80;74.60;;;;;;6238207;23;20008;-87
2022/11/02 11:59:45;;;;;;;6.97;3.15;;;28.70;74.00;;;;;;6236818;23;20008;-89
2022/11/02 12:02:31;;;;;;;5.20;3.08;;;27.80;75.40;;;;;;6263868;22;20004;-88
2022/11/02 12:05:17;;;;;;;8.35;3.38;;;27.10;76.70;;;;;;6235865;23;20342;-88
2022/11/02 12:08:02;;;;;;;6.72;2.75;;;25.80;78.40;;;;;;6245623;22;20007;-90
2022/11/02 12:10:40;;;;;;;7.28;3.17;;;25.00;79.70;;;;;;6257983;22;20035;-78
2022/11/02 12:13:25;;;;;;;9.27;3.28;;;24.30;81.00;;;;;;6268483;22;19996;-79
2022/11/02 12:16:17;;;;;;;;;;;23.60;82.30;;;;;;6254750;22;20478;-79
2022/11/02 12:19:08;;;;;;;12.68;3.47;;;23.00;82.80;;;;;;6218617;22;19903;-79
2022/11/02 12:21:37;;;;;;;9.48;3.35;;;22.50;84.30;;;;;;6257900;23;20000;-81
2022/11/02 12:24:15;;;;;;;6.75;3.05;;;22.30;85.20;;;;;;6251867;22;20008;-81
2022/11/02 12:26:52;;;;;;;8.95;3.28;;;22.20;85.60;;;;;;6251641;22;20012;-83
2022/11/02 12:29:37;;;;;;;9.18;2.88;;;22.00;86.60;;;;;;6251955;22;20034;-80
2022/11/02 12:32:28;;;;;;;10.43;5.22;;;21.80;87.00;;;;;;6256130;22;20015;-80
2022/11/02 12:35:21;;;;;;;13.50;2.80;;;21.60;87.40;;;;;;6252406;23;20008;-80
2022/11/02 12:38:25;;;;;;;7.80;3.03;;;21.30;88.40;;;;;;6252089;22;20009;-80
2022/11/02 12:41:04;;;;;;;4.75;2.75;;;21.00;90.00;;;;;;6252321;23;20008;-82
2022/11/02 12:43:44;;;;;;;11.85;3.05;;;20.90;90.30;;;;;;6255340;22;20084;-81
2022/11/02 12:46:35;;;;;;;10.98;2.97;;;20.70;90.60;;;;;;6252781;23;20043;-81
2022/11/02 12:49:16;;;;;;;9.50;2.70;;;20.60;91.00;;;;;;6229201;23;20478;-82
2022/11/02 12:52:10;;;;;;;12.98;3.25;;;20.50;91.30;;;;;;6254033;23;20008;-79
2022/11/02 12:54:56;;;;;;;12.75;3.00;;;20.50;91.20;;;;;;6256741;23;20035;-81
2022/11/02 12:57:26;;;;;;;8.05;3.10;;;20.40;91.30;;;;;;6229597;23;20020;-81
2022/11/02 12:59:56;;;;;;;5.40;2.63;;;20.30;91.20;;;;;;6223967;23;20007;-80
2022/11/02 13:02:38;;;;;;;7.38;3.20;;;20.30;91.70;;;;;;6251297;23;20083;-81
2022/11/02 13:05:16;;;;;;;11.07;3.83;;;20.30;91.90;;;;;;6251139;23;20449;-80
2022/11/02 13:07:50;;;;;;;5.72;2.80;;;20.20;91.80;;;;;;6249504;23;20073;-79
2022/11/02 13:10:19;;;;;;;7.57;2.63;;;20.10;91.70;;;;;;6250238;23;20098;-80